Time;durP1;ratioP1;P1;durP2;ratioP2;P2;SDS_P1;SDS_P2;PMS_P1;PMS_P2;Temp;Humidity;BMP_temperature;BMP_pressure;BME280_temperature;BME280_humidity;BME280_pressure;Samples;Min_cycle;Max_cycle;Signal;HPM_P1;HPM_P2
2022/11/05 00:10:24;;;;;;;15.17;11.97;;;10.10;1.00;;;;;;6220824;22;20415;-76
2022/11/05 00:18:23;;;;;;;13.00;10.43;;;10.00;1.00;;;;;;6241933;22;20473;-80
2022/11/05 00:20:51;;;;;;;16.13;11.50;;;10.00;1.00;;;;;;6221999;22;20422;-78
2022/11/05 00:26:05;;;;;;;15.50;10.70;;;10.00;1.00;;;;;;6220751;22;20430;-77
2022/11/05 00:28:32;;;;;;;14.63;10.50;;;10.00;1.00;;;;;;6222410;22;20946;-76
2022/11/05 00:31:09;;;;;;;16.03;10.50;;;10.00;1.00;;;;;;6221983;22;20545;-78
2022/11/05 00:33:36;;;;;;;14.60;9.77;;;10.00;1.00;;;;;;6222332;22;20434;-76
2022/11/05 00:36:03;;;;;;;13.53;9.40;;;10.00;1.00;;;;;;6195791;23;20288;-77
2022/11/05 00:38:31;;;;;;;14.33;9.30;;;10.00;1.00;;;;;;6222303;22;20414;-78
2022/11/05 00:40:58;;;;;;;12.23;9.00;;;10.00;1.00;;;;;;6221695;22;20941;-77
2022/11/05 00:46:11;;;;;;;13.97;9.20;;;10.00;1.00;;;;;;6221805;22;20943;-77
2022/11/05 00:51:22;;;;;;;13.83;8.83;;;10.00;1.00;;;;;;6221383;22;20418;-78
2022/11/05 00:53:49;;;;;;;14.13;9.00;;;10.00;1.00;;;;;;6223373;22;20827;-77
2022/11/05 00:56:16;;;;;;;12.03;8.13;;;10.00;1.00;;;;;;6222689;22;20473;-79
2022/11/05 00:58:43;;;;;;;14.53;9.00;;;10.00;1.00;;;;;;6222515;22;20415;-77
2022/11/05 01:01:12;;;;;;;14.03;8.50;;;10.00;1.00;;;;;;6223200;22;20416;-76
2022/11/05 01:03:40;;;;;;;12.83;8.77;;;10.00;1.00;;;;;;6220603;22;21166;-78
2022/11/05 01:06:09;;;;;;;15.33;8.73;;;10.00;1.00;;;;;;6193681;23;20431;-78
2022/11/05 01:08:36;;;;;;;13.37;9.23;;;10.00;1.00;;;;;;6191213;23;20761;-77
2022/11/05 01:11:10;;;;;;;12.20;7.63;;;10.00;1.00;;;;;;6192408;23;20420;-80
2022/11/05 01:13:38;;;;;;;13.70;9.40;;;10.10;1.00;;;;;;6192754;23;20490;-78
2022/11/05 01:16:07;;;;;;;12.53;7.80;;;10.10;1.00;;;;;;6192191;23;20965;-77
2022/11/05 01:18:36;;;;;;;14.10;7.77;;;10.10;1.00;;;;;;6191153;23;20871;-78
2022/11/05 01:21:10;;;;;;;12.47;7.60;;;10.00;1.00;;;;;;6193762;23;20511;-77
2022/11/05 01:23:37;;;;;;;12.47;7.60;;;10.10;1.00;;;;;;6192886;23;20433;-77
2022/11/05 01:26:04;;;;;;;13.50;7.87;;;10.00;1.00;;;;;;6193683;23;21193;-77
2022/11/05 01:28:31;;;;;;;13.10;8.73;;;10.00;1.00;;;;;;6192089;23;20498;-77
2022/11/05 01:30:58;;;;;;;12.97;8.00;;;10.00;1.00;;;;;;6192262;23;20502;-77
2022/11/05 01:33:26;;;;;;;10.90;7.80;;;10.00;1.00;;;;;;6193314;23;20388;-78
2022/11/05 01:35:55;;;;;;;11.30;7.00;;;10.00;1.00;;;;;;6191978;23;20936;-76
2022/11/05 01:38:22;;;;;;;13.37;7.83;;;10.00;1.00;;;;;;6191979;23;20459;-77
2022/11/05 01:40:51;;;;;;;11.27;7.40;;;10.00;1.00;;;;;;6192329;23;20430;-79
2022/11/05 01:43:20;;;;;;;12.40;7.90;;;10.00;1.00;;;;;;6189528;23;20420;-79
2022/11/05 01:45:51;;;;;;;12.07;7.80;;;10.00;1.00;;;;;;6190630;23;20437;-78
2022/11/05 01:48:21;;;;;;;12.33;7.50;;;10.00;1.00;;;;;;6193498;23;21183;-77
2022/11/05 01:50:55;;;;;;;12.57;7.40;;;10.00;1.00;;;;;;6192033;23;20453;-80
2022/11/05 01:53:27;;;;;;;19.70;7.03;;;10.00;1.00;;;;;;6192077;23;20439;-79
2022/11/05 01:55:58;;;;;;;17.67;7.63;;;10.00;1.00;;;;;;6191757;23;20431;-79
2022/11/05 01:58:30;;;;;;;13.20;7.97;;;9.90;1.00;;;;;;6193118;23;20431;-78
2022/11/05 02:00:59;;;;;;;14.63;8.13;;;10.00;1.00;;;;;;6192310;23;20303;-78
2022/11/05 02:03:26;;;;;;;14.80;8.10;;;10.00;1.00;;;;;;6192138;23;20499;-77
2022/11/05 02:05:57;;;;;;;11.60;7.43;;;9.90;1.00;;;;;;6191968;23;20517;-77
2022/11/05 02:08:45;;;;;;;12.63;7.93;;;9.90;1.00;;;;;;6192798;23;20422;-77
2022/11/05 02:11:16;;;;;;;12.23;7.57;;;9.90;1.00;;;;;;6191631;23;20428;-79
2022/11/05 02:13:43;;;;;;;15.33;7.30;;;9.80;1.00;;;;;;6189959;23;20455;-77
2022/11/05 02:16:19;;;;;;;13.23;7.27;;;9.90;1.00;;;;;;6191885;23;20425;-78
2022/11/05 02:18:57;;;;;;;14.32;7.93;;;9.90;1.00;;;;;;6192351;23;20442;-77
2022/11/05 02:22:20;;;;;;;14.43;7.87;;;9.90;1.00;;;;;;6192421;23;20220;-79
2022/11/05 02:25:01;;;;;;;11.60;7.00;;;9.80;1.00;;;;;;6192331;23;20563;-78
2022/11/05 02:27:52;;;;;;;9.70;6.23;;;9.80;1.00;;;;;;6193552;23;20513;-79
2022/11/05 02:30:39;;;;;;;11.30;6.95;;;9.80;1.00;;;;;;6191738;23;20491;-77
2022/11/05 02:33:34;;;;;;;11.70;7.30;;;9.80;1.00;;;;;;6193059;23;20227;-78
2022/11/05 02:36:18;;;;;;;13.10;7.50;;;9.80;1.00;;;;;;6180596;23;20424;-78
2022/11/05 02:38:53;;;;;;;11.80;7.67;;;9.80;1.00;;;;;;6181520;23;20435;-79
2022/11/05 02:41:30;;;;;;;12.87;8.33;;;9.70;1.00;;;;;;6193853;23;21061;-77
2022/11/05 02:44:09;;;;;;;13.30;8.03;;;9.70;1.00;;;;;;6191908;23;21133;-78
2022/11/05 02:46:47;;;;;;;18.20;8.87;;;9.70;1.00;;;;;;6192156;23;20499;-77
2022/11/05 02:49:23;;;;;;;13.60;8.93;;;9.60;1.00;;;;;;6193245;23;20506;-76
2022/11/05 02:51:56;;;;;;;16.10;9.00;;;9.60;1.00;;;;;;6192581;23;20423;-77
2022/11/05 02:54:30;;;;;;;15.03;8.57;;;9.60;1.00;;;;;;6193113;23;20219;-77
2022/11/05 02:56:59;;;;;;;15.23;9.87;;;9.50;1.00;;;;;;6191922;23;20489;-76
2022/11/05 02:59:25;;;;;;;13.53;9.60;;;9.50;1.00;;;;;;6192923;23;21175;-79
2022/11/05 03:01:57;;;;;;;14.55;9.07;;;9.40;1.00;;;;;;6191833;23;20428;-76
2022/11/05 03:04:25;;;;;;;14.25;10.13;;;9.40;1.00;;;;;;6199055;23;20222;-76
2022/11/05 03:07:08;;;;;;;17.98;10.32;;;9.30;1.00;;;;;;6221342;22;20224;-77
2022/11/05 03:09:57;;;;;;;16.60;10.73;;;9.30;1.00;;;;;;6222945;22;20214;-77
2022/11/05 03:12:33;;;;;;;19.70;11.05;;;9.30;1.00;;;;;;6197702;22;20230;-76
2022/11/05 03:15:11;;;;;;;16.33;10.20;;;9.30;1.00;;;;;;6221708;22;20210;-77
2022/11/05 03:17:45;;;;;;;16.55;10.43;;;9.30;1.00;;;;;;6222113;22;20299;-76
2022/11/05 03:20:20;;;;;;;18.97;10.40;;;9.40;1.00;;;;;;6222759;22;20222;-76
2022/11/05 03:22:54;;;;;;;13.10;9.00;;;9.30;1.00;;;;;;6218044;22;20977;-76
2022/11/05 03:25:24;;;;;;;16.37;8.93;;;9.30;1.00;;;;;;6222554;22;20430;-76
2022/11/05 03:27:56;;;;;;;13.57;8.87;;;9.20;1.00;;;;;;6220279;22;20429;-79
2022/11/05 03:30:24;;;;;;;14.30;9.88;;;9.20;1.00;;;;;;6220874;22;20470;-78
2022/11/05 03:32:58;;;;;;;15.20;10.05;;;9.20;1.00;;;;;;6220262;22;20671;-76
2022/11/05 03:35:29;;;;;;;13.80;9.90;;;9.20;1.00;;;;;;6220174;22;20515;-76
2022/11/05 03:38:01;;;;;;;16.87;9.13;;;9.20;1.00;;;;;;6221303;22;20412;-77
2022/11/05 03:40:32;;;;;;;15.50;10.17;;;9.20;1.00;;;;;;6222901;22;20502;-78
2022/11/05 03:43:00;;;;;;;14.57;9.52;;;9.30;1.00;;;;;;6222072;22;20423;-76
2022/11/05 03:45:32;;;;;;;16.17;9.60;;;9.30;1.00;;;;;;6220246;22;20218;-76
2022/11/05 03:48:03;;;;;;;16.20;8.80;;;9.30;1.00;;;;;;6214809;22;20422;-78
2022/11/05 03:50:38;;;;;;;16.42;9.23;;;9.30;1.00;;;;;;6221457;22;20438;-78
2022/11/05 03:53:13;;;;;;;15.18;8.38;;;9.30;1.00;;;;;;6221323;22;21010;-79
2022/11/05 03:55:46;;;;;;;14.00;8.77;;;9.20;1.00;;;;;;6221460;22;20287;-78
2022/11/05 03:58:15;;;;;;;14.57;8.47;;;9.20;1.00;;;;;;6222325;22;20517;-80
2022/11/05 04:00:44;;;;;;;14.65;8.95;;;9.20;1.00;;;;;;6221142;22;21026;-77
2022/11/05 04:03:12;;;;;;;15.40;9.18;;;9.20;1.00;;;;;;6220447;22;20684;-76
2022/11/05 04:05:40;;;;;;;12.60;8.23;;;9.10;1.00;;;;;;6219553;22;20671;-77
2022/11/05 04:13:35;;;;;;;15.80;9.97;;;9.20;1.00;;;;;;6222195;22;20430;-78
2022/11/05 04:18:47;;;;;;;15.90;10.27;;;9.10;1.00;;;;;;6208784;22;20450;-78
2022/11/05 04:24:09;;;;;;;17.17;10.05;;;9.10;1.00;;;;;;6221021;22;20282;-78
2022/11/05 04:26:37;;;;;;;16.67;11.17;;;9.10;1.00;;;;;;6220567;22;20213;-77
2022/11/05 04:31:48;;;;;;;19.27;10.80;;;9.00;1.00;;;;;;6219161;22;20218;-80
2022/11/05 04:34:17;;;;;;;18.90;10.77;;;9.00;1.00;;;;;;6220749;22;20769;-76
2022/11/05 04:36:45;;;;;;;20.03;10.17;;;9.00;1.00;;;;;;6220212;22;20432;-78
2022/11/05 04:39:12;;;;;;;17.15;10.77;;;9.00;1.00;;;;;;6221347;22;20426;-77
2022/11/05 04:41:39;;;;;;;18.75;10.75;;;8.90;1.00;;;;;;6219971;22;20687;-76
2022/11/05 04:44:06;;;;;;;16.55;10.00;;;8.90;1.00;;;;;;6220095;22;20666;-79
2022/11/05 04:46:33;;;;;;;17.38;10.88;;;8.90;1.00;;;;;;6219653;22;20238;-77
2022/11/05 04:49:02;;;;;;;18.83;10.30;;;8.90;1.00;;;;;;6220111;22;20200;-76
2022/11/05 04:51:33;;;;;;;17.73;9.93;;;8.90;1.00;;;;;;6221006;22;20218;-76
2022/11/05 04:54:01;;;;;;;16.23;10.10;;;8.90;1.00;;;;;;6220423;22;20481;-78
2022/11/05 04:56:30;;;;;;;17.65;10.32;;;8.80;1.00;;;;;;6221017;22;20930;-79
2022/11/05 04:58:57;;;;;;;20.15;10.50;;;8.80;1.00;;;;;;6218796;22;20709;-78
2022/11/05 05:01:25;;;;;;;16.65;9.35;;;8.80;1.00;;;;;;6220772;22;20286;-77
2022/11/05 05:03:53;;;;;;;14.80;8.60;;;8.80;1.00;;;;;;6217472;22;20222;-77
2022/11/05 05:06:20;;;;;;;15.38;9.60;;;8.70;1.00;;;;;;6220061;22;20222;-77
2022/11/05 05:08:51;;;;;;;14.80;8.90;;;8.80;1.00;;;;;;6220416;22;20203;-75
2022/11/05 05:11:20;;;;;;;13.05;8.25;;;8.80;1.00;;;;;;6221435;22;20218;-77
2022/11/05 05:13:48;;;;;;;18.25;9.60;;;8.80;1.00;;;;;;6219536;22;20221;-77
2022/11/05 05:16:19;;;;;;;17.20;8.50;;;8.80;1.00;;;;;;6220737;22;20222;-78
2022/11/05 05:18:46;;;;;;;21.30;11.00;;;8.80;1.00;;;;;;6218835;22;20224;-76
2022/11/05 05:23:59;;;;;;;17.42;9.20;;;8.80;1.00;;;;;;6210118;22;20941;-77
2022/11/05 05:26:26;;;;;;;14.40;8.75;;;8.80;1.00;;;;;;6221219;22;20214;-77
2022/11/05 05:28:55;;;;;;;16.20;8.18;;;8.80;1.00;;;;;;6220076;22;20234;-78
2022/11/05 05:31:22;;;;;;;16.08;8.45;;;8.70;1.00;;;;;;6221646;22;20687;-76
2022/11/05 05:33:49;;;;;;;13.20;7.82;;;8.80;1.00;;;;;;6221219;22;20222;-77
2022/11/05 05:36:16;;;;;;;13.60;8.25;;;8.80;1.00;;;;;;6222289;22;20303;-76
2022/11/05 05:38:43;;;;;;;16.50;8.30;;;8.80;1.00;;;;;;6220306;22;20237;-77
2022/11/05 05:41:13;;;;;;;16.87;8.97;;;8.80;1.00;;;;;;6221893;22;20432;-76
2022/11/05 05:43:40;;;;;;;16.03;8.87;;;8.80;1.00;;;;;;6222050;22;20450;-77
2022/11/05 05:46:10;;;;;;;16.90;10.13;;;8.80;1.00;;;;;;6221549;22;20425;-77
2022/11/05 05:48:37;;;;;;;19.20;9.07;;;8.80;1.00;;;;;;6220783;22;21293;-77
2022/11/05 05:51:05;;;;;;;15.73;9.17;;;8.80;1.00;;;;;;6222879;22;20215;-76
2022/11/05 05:53:32;;;;;;;23.15;11.07;;;8.70;1.00;;;;;;6222454;22;21094;-77
2022/11/05 05:55:59;;;;;;;17.00;9.50;;;8.70;1.00;;;;;;6222587;22;20610;-78
2022/11/05 05:58:31;;;;;;;17.38;10.07;;;8.70;1.00;;;;;;6223817;22;20956;-76
2022/11/05 06:01:01;;;;;;;15.83;9.20;;;8.70;1.00;;;;;;6222357;22;20564;-78
2022/11/05 06:03:27;;;;;;;18.15;8.50;;;8.60;1.00;;;;;;6222328;22;20414;-77
2022/11/05 06:05:59;;;;;;;18.08;9.63;;;8.60;1.00;;;;;;6221723;22;20808;-77
2022/11/05 06:08:27;;;;;;;15.97;9.00;;;8.70;1.00;;;;;;6218204;22;20218;-77
2022/11/05 06:10:55;;;;;;;17.98;9.27;;;8.70;1.00;;;;;;6236839;22;20442;-77
2022/11/05 06:13:22;;;;;;;16.05;8.73;;;8.80;1.00;;;;;;6222781;22;20663;-77
2022/11/05 06:15:50;;;;;;;19.53;10.00;;;8.70;1.00;;;;;;6222394;22;20224;-79
2022/11/05 06:18:20;;;;;;;14.07;8.43;;;8.80;1.00;;;;;;6221245;22;20422;-78
2022/11/05 06:20:46;;;;;;;19.13;8.17;;;8.80;1.00;;;;;;6222173;22;20434;-78
2022/11/05 06:23:13;;;;;;;13.70;7.03;;;8.80;1.00;;;;;;6222713;22;20418;-78
2022/11/05 06:25:41;;;;;;;12.47;7.13;;;8.80;1.00;;;;;;6231983;22;20459;-77
2022/11/05 06:28:08;;;;;;;14.77;7.53;;;8.80;1.00;;;;;;6222188;22;20552;-78
2022/11/05 06:30:38;;;;;;;13.85;6.65;;;8.80;1.00;;;;;;6220443;22;20439;-79
2022/11/05 06:33:06;;;;;;;13.55;7.70;;;8.70;1.00;;;;;;6222286;22;20213;-80
2022/11/05 06:35:33;;;;;;;14.40;6.80;;;8.70;1.00;;;;;;6224752;22;20238;-79
2022/11/05 06:38:01;;;;;;;12.27;7.23;;;8.70;1.00;;;;;;6224489;22;20561;-78
2022/11/05 06:40:28;;;;;;;11.85;6.45;;;8.70;1.00;;;;;;6224395;22;20429;-80
2022/11/05 06:42:56;;;;;;;15.38;7.53;;;8.60;1.00;;;;;;6224227;22;20784;-76
2022/11/05 06:45:23;;;;;;;13.60;8.00;;;8.60;1.00;;;;;;6222442;22;20220;-79
2022/11/05 06:47:55;;;;;;;17.98;7.43;;;8.70;1.00;;;;;;6221677;22;20228;-78
2022/11/05 06:50:24;;;;;;;14.05;7.30;;;8.70;1.00;;;;;;6222841;22;20226;-79
2022/11/05 06:52:57;;;;;;;13.35;6.97;;;8.70;1.00;;;;;;6218854;22;20548;-78
2022/11/05 06:55:27;;;;;;;14.15;7.32;;;8.70;1.00;;;;;;6219863;22;20218;-77
2022/11/05 06:57:55;;;;;;;10.88;6.50;;;8.70;1.00;;;;;;6219697;22;20522;-78
2022/11/05 07:00:22;;;;;;;16.38;6.80;;;8.60;1.00;;;;;;6221320;22;20297;-77
2022/11/05 07:02:54;;;;;;;11.45;7.25;;;8.70;1.00;;;;;;6218156;22;20221;-79
2022/11/05 07:05:32;;;;;;;15.98;7.45;;;8.60;1.00;;;;;;6222217;22;20215;-88
2022/11/05 07:08:00;;;;;;;17.73;8.00;;;8.60;1.00;;;;;;6218557;22;20229;-78
2022/11/05 07:10:29;;;;;;;13.43;7.30;;;8.60;1.00;;;;;;6218733;22;20277;-78
2022/11/05 07:12:56;;;;;;;11.70;6.78;;;8.60;1.00;;;;;;6218911;22;20336;-77
2022/11/05 07:15:23;;;;;;;10.93;6.07;;;8.60;1.00;;;;;;6220963;22;20215;-80
2022/11/05 07:17:56;;;;;;;14.20;6.57;;;8.60;1.00;;;;;;6218607;22;20225;-77
2022/11/05 07:20:23;;;;;;;13.53;6.70;;;8.50;1.00;;;;;;6220616;22;20432;-80
2022/11/05 07:22:51;;;;;;;13.70;8.50;;;8.50;1.00;;;;;;6220569;22;20441;-78
2022/11/05 07:25:18;;;;;;;17.13;7.50;;;8.60;1.00;;;;;;6220131;22;20293;-78
2022/11/05 07:27:45;;;;;;;14.98;7.95;;;8.60;1.00;;;;;;6220431;22;20229;-77
2022/11/05 07:30:15;;;;;;;13.95;7.13;;;8.60;1.00;;;;;;6220781;22;20297;-77
2022/11/05 07:32:43;;;;;;;13.77;7.40;;;8.60;1.00;;;;;;6220487;22;20235;-81
2022/11/05 07:35:12;;;;;;;13.10;7.15;;;8.60;1.00;;;;;;6217441;22;20239;-81
2022/11/05 07:37:43;;;;;;;14.95;7.60;;;8.60;1.00;;;;;;6217447;22;20247;-80
2022/11/05 07:40:14;;;;;;;16.58;7.95;;;8.60;1.00;;;;;;6219814;22;20233;-79
2022/11/05 07:42:43;;;;;;;18.42;7.60;;;8.60;1.00;;;;;;6222371;22;20215;-79
2022/11/05 07:45:12;;;;;;;20.20;11.48;;;8.60;1.00;;;;;;6221729;22;20226;-76
2022/11/05 07:47:45;;;;;;;16.30;7.60;;;8.60;1.00;;;;;;6218363;22;20686;-77
2022/11/05 07:50:12;;;;;;;16.45;8.10;;;8.70;1.00;;;;;;6221888;22;20687;-77
2022/11/05 07:52:39;;;;;;;11.65;7.82;;;8.70;1.00;;;;;;6219542;22;20221;-77
2022/11/05 07:55:08;;;;;;;14.85;7.07;;;8.80;1.00;;;;;;6221347;22;21017;-78
2022/11/05 07:57:43;;;;;;;16.98;6.65;;;8.80;1.00;;;;;;6221496;22;20228;-77
2022/11/05 08:00:13;;;;;;;16.03;7.90;;;8.80;1.00;;;;;;6220726;22;20250;-77
2022/11/05 08:02:41;;;;;;;14.53;7.97;;;8.90;1.00;;;;;;6219857;22;20418;-78
2022/11/05 08:05:08;;;;;;;20.45;6.90;;;9.00;1.00;;;;;;6220799;22;20419;-77
2022/11/05 08:07:39;;;;;;;16.70;7.40;;;9.10;1.00;;;;;;6220899;22;20223;-80
2022/11/05 08:10:06;;;;;;;15.30;5.40;;;9.20;1.00;;;;;;6220610;22;20431;-78
2022/11/05 08:12:33;;;;;;;16.80;6.67;;;9.30;1.00;;;;;;6219185;22;20831;-78
2022/11/05 08:15:05;;;;;;;13.40;7.43;;;9.40;1.00;;;;;;6220609;22;20433;-77
2022/11/05 08:17:33;;;;;;;13.03;7.17;;;9.40;1.00;;;;;;6231110;22;20430;-81
2022/11/05 08:20:00;;;;;;;17.47;7.67;;;9.40;1.00;;;;;;6220471;22;20457;-77
2022/11/05 08:22:27;;;;;;;22.65;9.00;;;9.40;1.00;;;;;;6219762;22;20420;-78
2022/11/05 08:24:54;;;;;;;12.80;8.70;;;9.50;1.00;;;;;;6221347;22;20213;-78
2022/11/05 08:27:21;;;;;;;14.70;6.60;;;9.50;1.00;;;;;;6222556;22;20886;-78
2022/11/05 08:29:48;;;;;;;12.23;6.53;;;9.40;1.00;;;;;;6191581;22;20451;-78
2022/11/05 08:32:17;;;;;;;16.67;6.80;;;9.40;1.00;;;;;;6220437;22;20461;-79
2022/11/05 08:34:45;;;;;;;11.43;7.27;;;9.40;1.00;;;;;;6220346;22;20423;-77
2022/11/05 08:37:13;;;;;;;17.80;7.90;;;9.40;1.00;;;;;;6220158;22;20390;-76
2022/11/05 08:39:41;;;;;;;14.10;7.37;;;9.50;1.00;;;;;;6222356;22;20761;-77
2022/11/05 08:42:09;;;;;;;14.10;7.17;;;9.50;1.00;;;;;;6222904;22;20952;-77
2022/11/05 08:44:36;;;;;;;15.80;7.20;;;9.50;1.00;;;;;;6223132;22;20420;-78
2022/11/05 08:47:03;;;;;;;17.73;8.03;;;9.40;1.00;;;;;;6224443;22;20897;-78
2022/11/05 08:49:31;;;;;;;13.43;7.10;;;9.40;1.00;;;;;;6223872;22;20437;-78
2022/11/05 08:52:01;;;;;;;14.73;7.70;;;9.50;1.00;;;;;;6222622;22;20588;-77
2022/11/05 08:54:30;;;;;;;18.33;8.03;;;9.50;1.00;;;;;;6223938;22;20407;-79
2022/11/05 08:56:58;;;;;;;16.93;7.80;;;9.60;1.00;;;;;;6223725;22;20418;-80
2022/11/05 08:59:26;;;;;;;13.30;7.43;;;9.70;1.00;;;;;;6224599;22;20445;-77
2022/11/05 09:01:52;;;;;;;14.20;7.10;;;9.90;1.00;;;;;;6221710;22;20418;-77
2022/11/05 09:04:19;;;;;;;13.13;6.90;;;10.00;1.00;;;;;;6222477;22;21196;-80
2022/11/05 09:06:51;;;;;;;16.00;7.57;;;10.10;1.00;;;;;;6223146;22;20445;-79
2022/11/05 09:09:19;;;;;;;12.53;7.37;;;10.00;1.00;;;;;;6223428;22;20460;-77
2022/11/05 09:11:46;;;;;;;14.53;6.53;;;10.20;1.00;;;;;;6221443;22;20906;-78
2022/11/05 09:14:13;;;;;;;16.40;8.10;;;10.40;1.00;;;;;;6224271;22;20525;-78
2022/11/05 09:16:39;;;;;;;14.27;7.33;;;10.90;1.00;;;;;;6221034;22;20434;-79
2022/11/05 09:19:08;;;;;;;12.40;7.10;;;11.40;1.00;;;;;;6222677;22;20947;-79
2022/11/05 09:21:36;;;;;;;13.27;5.67;;;12.30;1.00;;;;;;6218335;22;20445;-79
2022/11/05 09:24:05;;;;;;;14.80;6.10;;;12.90;1.00;;;;;;6234650;22;21003;-77
2022/11/05 09:26:32;;;;;;;11.77;5.10;;;13.50;1.00;;;;;;6220650;22;20435;-77
2022/11/05 09:28:59;;;;;;;16.10;5.67;;;13.50;1.00;;;;;;6220847;22;20518;-78
2022/11/05 09:31:28;;;;;;;12.50;6.73;;;13.20;1.00;;;;;;6221300;22;20506;-77
2022/11/05 09:33:55;;;;;;;18.30;6.63;;;12.90;1.00;;;;;;6223639;22;20472;-78
2022/11/05 09:36:22;;;;;;;12.70;5.83;;;12.80;1.00;;;;;;6224636;22;20990;-78
2022/11/05 09:38:49;;;;;;;11.90;5.20;;;13.40;1.00;;;;;;6221847;22;20507;-78
2022/11/05 09:41:26;;;;;;;14.43;4.60;;;14.30;1.00;;;;;;6222343;22;20966;-77
2022/11/05 09:43:57;;;;;;;24.83;10.80;;;15.10;1.00;;;;;;6220739;22;21170;-78
2022/11/05 09:46:26;;;;;;;12.97;5.87;;;15.60;1.00;;;;;;6220819;22;21037;-78
2022/11/05 09:49:01;;;;;;;16.40;6.27;;;15.30;1.00;;;;;;6222024;22;21168;-78
2022/11/05 09:51:28;;;;;;;13.43;5.90;;;15.00;1.00;;;;;;6220281;22;20417;-78
2022/11/05 09:53:55;;;;;;;12.33;4.83;;;14.80;1.00;;;;;;6221269;22;20431;-78
2022/11/05 09:56:26;;;;;;;12.17;5.90;;;14.40;1.00;;;;;;6220062;22;20507;-78
2022/11/05 09:58:58;;;;;;;15.63;4.80;;;14.00;1.00;;;;;;6220369;22;20509;-77
2022/11/05 10:01:31;;;;;;;11.90;4.70;;;13.50;1.00;;;;;;6221513;22;20880;-77
2022/11/05 10:04:01;;;;;;;11.80;4.80;;;13.20;1.00;;;;;;6221403;22;20429;-77
2022/11/05 10:06:29;;;;;;;11.03;5.60;;;13.00;1.00;;;;;;6221696;22;20458;-79
2022/11/05 10:09:03;;;;;;;15.33;5.47;;;13.10;1.00;;;;;;6230181;22;20472;-78
2022/11/05 10:11:37;;;;;;;15.63;4.77;;;13.40;1.00;;;;;;6221204;22;20448;-80
2022/11/05 10:14:13;;;;;;;10.80;5.00;;;13.80;1.00;;;;;;6220867;22;20395;-77
2022/11/05 10:16:46;;;;;;;14.50;4.87;;;14.00;1.00;;;;;;6222019;22;20428;-79
2022/11/05 10:19:20;;;;;;;8.53;3.50;;;14.00;1.00;;;;;;6221034;22;20916;-77
2022/11/05 10:21:47;;;;;;;12.53;4.13;;;14.40;1.00;;;;;;6220535;22;20438;-77
2022/11/05 10:24:16;;;;;;;8.90;4.10;;;15.00;1.00;;;;;;6222032;22;20502;-78
2022/11/05 10:26:49;;;;;;;11.93;4.03;;;15.20;1.00;;;;;;6219735;22;20435;-78
2022/11/05 10:29:22;;;;;;;10.70;3.53;;;15.20;1.00;;;;;;6221982;22;20438;-79
2022/11/05 10:31:49;;;;;;;11.83;3.90;;;15.90;1.00;;;;;;6220773;22;20541;-79
2022/11/05 10:34:16;;;;;;;13.87;3.33;;;16.30;1.00;;;;;;6222249;22;20438;-77
2022/11/05 10:36:43;;;;;;;12.60;4.10;;;16.50;1.00;;;;;;6219800;22;20874;-77
2022/11/05 10:39:13;;;;;;;11.27;3.97;;;16.40;1.00;;;;;;6223059;22;20827;-77
2022/11/05 10:42:05;;;;;;;11.93;4.53;;;16.10;1.00;;;;;;6208757;22;21009;-76
2022/11/05 10:44:40;;;;;;;10.07;3.90;;;15.90;1.00;;;;;;6240440;22;20423;-77
2022/11/05 10:47:43;;;;;;;10.40;3.70;;;15.90;1.00;;;;;;6221622;22;20561;-77
2022/11/05 10:50:15;;;;;;;9.80;4.23;;;16.30;1.00;;;;;;6223879;22;20919;-78
2022/11/05 10:52:53;;;;;;;11.00;3.80;;;16.90;1.00;;;;;;6210582;22;20415;-78
2022/11/05 10:55:24;;;;;;;12.17;4.33;;;17.60;1.00;;;;;;6223498;22;20892;-79
2022/11/05 10:58:01;;;;;;;14.20;8.30;;;19.30;1.00;;;;;;6223328;22;20812;-80
2022/11/05 11:00:31;;;;;;;9.17;2.97;;;20.80;1.00;;;;;;6222901;22;20431;-77
2022/11/05 11:03:00;;;;;;;11.73;3.43;;;21.10;1.00;;;;;;6221380;22;20417;-76
2022/11/05 11:05:30;;;;;;;10.10;3.63;;;21.00;1.00;;;;;;6221711;22;20910;-80
2022/11/05 11:08:03;;;;;;;8.87;3.00;;;21.10;1.00;;;;;;6222223;22;20426;-79
2022/11/05 11:10:33;;;;;;;10.93;3.17;;;20.70;1.00;;;;;;6223721;22;20736;-80
2022/11/05 11:13:00;;;;;;;13.17;2.87;;;20.20;1.00;;;;;;6222875;22;21007;-78
2022/11/05 11:15:31;;;;;;;9.30;3.27;;;19.80;1.00;;;;;;6222935;22;20425;-80
2022/11/05 11:17:59;;;;;;;10.80;2.70;;;19.90;1.00;;;;;;6223258;22;20428;-78
2022/11/05 11:20:28;;;;;;;8.50;2.40;;;19.80;1.00;;;;;;6220346;22;20904;-78
2022/11/05 11:23:04;;;;;;;7.80;2.70;;;20.00;1.00;;;;;;6220548;22;20439;-80
2022/11/05 11:25:40;;;;;;;10.20;2.80;;;20.20;1.00;;;;;;6224946;22;20966;-77
2022/11/05 11:28:16;;;;;;;11.10;3.10;;;20.40;1.00;;;;;;6223128;22;20503;-78
2022/11/05 11:30:53;;;;;;;15.03;3.47;;;20.50;1.00;;;;;;6221171;22;20917;-78
2022/11/05 11:33:25;;;;;;;10.70;4.03;;;21.20;1.00;;;;;;6222883;22;20414;-79
2022/11/05 11:35:53;;;;;;;9.70;2.80;;;21.60;1.00;;;;;;6222660;22;20504;-79
2022/11/05 11:38:23;;;;;;;8.70;2.40;;;21.60;1.00;;;;;;6221203;22;20426;-78
2022/11/05 11:40:50;;;;;;;9.13;2.63;;;21.30;1.00;;;;;;6222220;22;20831;-80
2022/11/05 11:43:26;;;;;;;10.40;2.67;;;20.70;1.00;;;;;;6221266;22;20496;-78
2022/11/05 11:45:57;;;;;;;8.43;2.33;;;20.80;1.00;;;;;;6221043;22;20414;-79
2022/11/05 11:48:28;;;;;;;8.30;2.57;;;21.00;1.00;;;;;;6221677;22;20829;-79
2022/11/05 11:50:57;;;;;;;10.80;3.13;;;21.50;1.00;;;;;;6220955;22;20437;-79
2022/11/05 11:53:33;;;;;;;7.53;2.33;;;22.00;1.00;;;;;;6222175;22;20419;-80
2022/11/05 11:56:17;;;;;;;6.90;2.47;;;22.40;1.00;;;;;;6219103;22;20843;-81
2022/11/05 11:58:47;;;;;;;7.33;2.30;;;23.60;1.00;;;;;;6221416;22;21202;-79
2022/11/05 12:01:44;;;;;;;9.23;2.30;;;23.70;1.00;;;;;;6222352;22;20930;-79
2022/11/05 12:04:37;;;;;;;8.13;2.37;;;22.00;1.00;;;;;;6221445;22;20416;-80
2022/11/05 12:07:16;;;;;;;9.37;2.83;;;22.00;1.00;;;;;;6218584;22;20844;-79
2022/11/05 12:10:03;;;;;;;7.43;1.83;;;23.40;1.00;;;;;;6219226;22;20518;-79
2022/11/05 12:12:38;;;;;;;10.50;2.30;;;22.50;1.00;;;;;;6223072;22;20435;-79
2022/11/05 12:15:23;;;;;;;8.20;2.23;;;21.80;1.00;;;;;;6220941;22;20505;-81
2022/11/05 12:17:59;;;;;;;11.20;2.97;;;21.00;1.00;;;;;;6219980;22;20741;-80
2022/11/05 12:20:58;;;;;;;9.50;2.77;;;20.50;1.00;;;;;;6223066;22;20424;-79
2022/11/05 12:23:49;;;;;;;8.30;2.80;;;20.60;1.00;;;;;;6222231;22;20423;-78
2022/11/05 12:26:24;;;;;;;8.37;2.50;;;21.80;1.00;;;;;;6202320;22;20417;-78
2022/11/05 12:29:10;;;;;;;8.93;1.93;;;22.90;1.00;;;;;;6220152;22;20427;-80
2022/11/05 12:31:46;;;;;;;10.00;2.07;;;23.00;1.00;;;;;;6221514;22;20518;-78
2022/11/05 12:34:32;;;;;;;10.23;3.57;;;22.80;1.00;;;;;;6223307;22;20398;-79
2022/11/05 12:37:15;;;;;;;10.60;2.03;;;21.40;1.00;;;;;;6222588;22;20428;-81
2022/11/05 12:39:53;;;;;;;7.03;2.00;;;20.00;1.00;;;;;;6222207;22;20431;-80
2022/11/05 12:42:36;;;;;;;7.87;2.17;;;18.80;1.00;;;;;;6219453;22;20430;-79
2022/11/05 12:45:12;;;;;;;8.80;2.00;;;18.30;1.00;;;;;;6224296;22;20433;-77
2022/11/05 12:48:03;;;;;;;8.70;1.90;;;17.70;1.00;;;;;;6224347;22;20478;-76
2022/11/05 12:50:41;;;;;;;8.80;1.90;;;17.20;1.00;;;;;;6198847;22;20518;-79
2022/11/05 12:53:25;;;;;;;7.10;1.70;;;16.50;1.00;;;;;;6224111;22;20502;-77
2022/11/05 12:55:55;;;;;;;6.70;2.00;;;15.70;1.00;;;;;;6222986;22;20436;-77
2022/11/05 12:58:28;;;;;;;8.13;1.67;;;15.60;1.00;;;;;;6225613;22;20750;-79
2022/11/05 13:01:00;;;;;;;7.43;2.10;;;16.80;1.00;;;;;;6233245;22;20440;-78
2022/11/05 13:03:38;;;;;;;7.93;2.30;;;17.90;1.00;;;;;;6226464;22;20434;-81
2022/11/05 13:06:16;;;;;;;7.70;2.97;;;18.50;1.00;;;;;;6224856;22;20421;-80
2022/11/05 13:08:48;;;;;;;8.47;1.80;;;20.00;1.00;;;;;;6226162;22;20917;-79
2022/11/05 13:11:20;;;;;;;10.97;2.00;;;21.60;1.00;;;;;;6225982;22;20787;-79
2022/11/05 13:13:57;;;;;;;8.00;2.23;;;21.70;1.00;;;;;;6223894;22;20425;-79
2022/11/05 13:16:29;;;;;;;7.80;2.10;;;20.50;1.00;;;;;;6225240;22;20438;-79
2022/11/05 13:19:03;;;;;;;7.07;2.10;;;18.90;1.00;;;;;;6225693;22;20422;-80
2022/11/05 13:21:34;;;;;;;8.20;2.30;;;18.10;1.00;;;;;;6225380;22;20501;-79
2022/11/05 13:24:05;;;;;;;11.00;2.60;;;17.80;1.00;;;;;;6225993;22;20518;-79
2022/11/05 13:26:39;;;;;;;9.63;2.40;;;17.30;1.00;;;;;;6224887;22;21013;-77
2022/11/05 13:29:11;;;;;;;6.80;1.50;;;16.60;1.00;;;;;;6199734;23;20396;-79
2022/11/05 13:31:43;;;;;;;10.53;2.73;;;16.10;1.00;;;;;;6211306;22;20388;-77
2022/11/05 13:34:12;;;;;;;10.20;3.00;;;15.80;1.00;;;;;;6249636;22;20419;-79
2022/11/05 13:39:37;;;;;;;10.07;2.57;;;15.00;1.00;;;;;;6224716;22;20639;-78
2022/11/05 13:42:57;;;;;;;7.73;2.10;;;14.60;1.00;;;;;;6223674;22;20395;-78
2022/11/05 13:45:59;;;;;;;9.10;2.00;;;14.40;1.00;;;;;;6223702;22;20429;-79
2022/11/05 13:48:47;;;;;;;7.33;2.00;;;14.20;1.00;;;;;;6222606;22;20428;-82
2022/11/05 13:51:56;;;;;;;7.20;1.90;;;13.90;1.00;;;;;;6222147;22;20498;-78
2022/11/05 13:55:02;;;;;;;7.57;1.40;;;13.80;1.00;;;;;;6223237;22;20571;-77
2022/11/05 13:58:02;;;;;;;9.73;2.83;;;13.90;1.00;;;;;;6223314;22;20511;-78
2022/11/05 14:00:36;;;;;;;8.47;2.40;;;14.00;1.00;;;;;;6223427;22;21005;-79